Time;durP1;ratioP1;P1;durP2;ratioP2;P2;SDS_P1;SDS_P2;PMS_P1;PMS_P2;Temp;Humidity;BMP_temperature;BMP_pressure;BME280_temperature;BME280_humidity;BME280_pressure;Samples;Min_cycle;Max_cycle;Signal;HPM_P1;HPM_P2
2022/09/26 00:02:19;;;;;;;6.03;4.75;;;11.20;85.40;;;;;;5070588;28;20435;-67
2022/09/26 00:04:46;;;;;;;5.67;3.87;;;11.20;86.00;;;;;;5075528;28;20790;-67
2022/09/26 00:07:13;;;;;;;6.22;4.00;;;11.20;86.10;;;;;;5071078;28;20426;-68
2022/09/26 00:09:40;;;;;;;5.25;3.72;;;11.20;86.10;;;;;;5076861;28;20434;-67
2022/09/26 00:12:06;;;;;;;6.28;4.30;;;11.20;86.20;;;;;;5061701;28;20433;-69
2022/09/26 00:14:33;;;;;;;5.22;4.45;;;11.20;85.30;;;;;;5076295;28;20426;-69
2022/09/26 00:17:01;;;;;;;6.05;3.80;;;11.20;85.70;;;;;;5070206;28;21059;-68
2022/09/26 00:19:28;;;;;;;4.65;3.70;;;11.20;85.20;;;;;;5061262;28;20442;-68
2022/09/26 00:21:55;;;;;;;5.77;3.70;;;11.20;85.30;;;;;;5067128;28;20439;-70
2022/09/26 00:24:22;;;;;;;5.40;3.60;;;11.10;85.70;;;;;;5078024;28;20426;-68
2022/09/26 00:26:48;;;;;;;5.13;3.95;;;11.10;86.20;;;;;;5078408;28;20446;-69
2022/09/26 00:29:15;;;;;;;5.55;4.03;;;11.10;86.30;;;;;;5076362;28;20430;-70
2022/09/26 00:31:44;;;;;;;5.38;3.30;;;11.10;86.30;;;;;;5070017;28;20439;-68
2022/09/26 00:34:14;;;;;;;5.47;3.70;;;11.00;86.80;;;;;;5066083;28;20428;-68
2022/09/26 00:36:41;;;;;;;4.65;3.78;;;11.00;87.10;;;;;;5072684;28;20427;-68
2022/09/26 00:39:09;;;;;;;5.13;3.88;;;11.00;87.30;;;;;;5078682;28;20436;-67
2022/09/26 00:41:36;;;;;;;3.90;3.13;;;11.00;87.30;;;;;;5067315;28;20442;-68
2022/09/26 00:44:04;;;;;;;6.22;4.32;;;11.00;87.10;;;;;;5082002;28;20798;-68
2022/09/26 00:46:35;;;;;;;4.80;3.30;;;11.10;86.80;;;;;;5069685;28;20424;-68
2022/09/26 00:49:14;;;;;;;5.50;3.70;;;11.10;86.00;;;;;;5070643;28;20531;-67
2022/09/26 00:51:45;;;;;;;5.05;3.60;;;11.00;86.60;;;;;;5070842;28;20415;-68
2022/09/26 00:54:16;;;;;;;4.00;3.60;;;11.00;86.70;;;;;;5070367;28;20422;-68
2022/09/26 00:56:44;;;;;;;4.78;3.50;;;10.90;87.20;;;;;;5075905;28;20427;-67
2022/09/26 00:59:18;;;;;;;4.70;3.38;;;10.90;87.20;;;;;;5064159;28;20478;-68
2022/09/26 01:01:45;;;;;;;3.80;3.50;;;10.90;87.80;;;;;;5071719;28;20426;-67
2022/09/26 01:04:14;;;;;;;4.40;3.50;;;10.90;87.00;;;;;;5067313;28;21118;-68
2022/09/26 01:06:41;;;;;;;4.70;3.80;;;10.90;87.20;;;;;;5077698;28;20425;-68
2022/09/26 01:09:09;;;;;;;4.45;3.53;;;10.90;87.90;;;;;;5071197;28;20419;-68
2022/09/26 01:11:37;;;;;;;6.32;3.85;;;10.90;86.70;;;;;;5061867;28;20512;-68
2022/09/26 01:14:04;;;;;;;6.65;3.90;;;10.90;86.90;;;;;;5065754;28;20798;-68
2022/09/26 01:16:32;;;;;;;6.07;4.10;;;10.90;87.60;;;;;;5067519;28;20912;-69
2022/09/26 01:19:01;;;;;;;5.45;3.90;;;10.80;87.60;;;;;;5065106;28;20420;-68
2022/09/26 01:21:57;;;;;;;3.97;3.50;;;10.80;88.20;;;;;;5047452;28;20421;-68
2022/09/26 01:24:44;;;;;;;4.38;3.72;;;10.80;88.10;;;;;;5058515;28;20432;-68
2022/09/26 01:27:38;;;;;;;4.13;3.72;;;10.80;88.50;;;;;;5078329;28;20433;-68
2022/09/26 01:30:13;;;;;;;5.82;4.00;;;10.80;88.80;;;;;;5072117;28;20429;-69
2022/09/26 01:33:06;;;;;;;5.10;3.75;;;10.90;88.00;;;;;;5073133;28;20454;-69
2022/09/26 01:35:51;;;;;;;4.40;3.70;;;10.90;88.40;;;;;;5068915;28;20471;-68
2022/09/26 01:38:27;;;;;;;4.53;3.75;;;10.90;87.50;;;;;;5065715;28;20439;-69
2022/09/26 01:41:11;;;;;;;5.90;4.22;;;11.00;87.20;;;;;;5077003;28;20429;-67
2022/09/26 01:43:43;;;;;;;4.23;3.80;;;11.00;87.20;;;;;;5060477;28;20431;-68
2022/09/26 01:46:23;;;;;;;5.78;4.05;;;11.00;86.20;;;;;;5067037;28;20419;-68
2022/09/26 01:48:54;;;;;;;4.30;3.90;;;11.00;86.90;;;;;;5072258;28;20436;-68
2022/09/26 01:51:25;;;;;;;4.32;3.70;;;11.00;87.70;;;;;;5075510;28;20458;-69
2022/09/26 01:53:56;;;;;;;5.60;4.30;;;11.00;86.80;;;;;;5062786;28;20435;-68
2022/09/26 01:56:26;;;;;;;4.40;4.00;;;11.00;87.30;;;;;;5075223;28;20429;-68
2022/09/26 01:58:58;;;;;;;4.10;3.70;;;11.00;87.30;;;;;;5074838;28;20859;-68
2022/09/26 02:01:29;;;;;;;4.90;3.80;;;10.90;87.50;;;;;;5068249;28;20430;-68
2022/09/26 02:04:02;;;;;;;5.00;3.88;;;10.90;87.80;;;;;;5063597;28;20918;-69
2022/09/26 02:06:37;;;;;;;3.92;3.40;;;10.90;87.60;;;;;;5073577;28;20431;-68
2022/09/26 02:09:11;;;;;;;4.60;3.80;;;11.00;87.50;;;;;;5066202;28;20442;-70
2022/09/26 02:11:41;;;;;;;4.50;3.90;;;11.00;87.80;;;;;;5070378;28;20431;-68
2022/09/26 02:14:13;;;;;;;5.00;4.10;;;11.00;87.50;;;;;;5077686;28;20447;-69
2022/09/26 02:16:46;;;;;;;5.25;3.70;;;11.00;87.50;;;;;;5053729;28;20434;-68
2022/09/26 02:19:19;;;;;;;5.82;3.88;;;11.00;87.60;;;;;;5064469;28;20435;-70
2022/09/26 02:21:46;;;;;;;5.00;4.10;;;11.00;87.70;;;;;;5074483;28;20414;-69
2022/09/26 02:24:14;;;;;;;5.38;3.95;;;11.00;87.70;;;;;;5067856;28;20432;-69
2022/09/26 02:26:42;;;;;;;4.60;3.80;;;11.00;88.60;;;;;;5056561;28;20421;-69
2022/09/26 02:29:09;;;;;;;4.47;3.80;;;11.00;87.70;;;;;;5065745;28;20433;-69
2022/09/26 02:31:41;;;;;;;4.38;3.90;;;11.00;87.60;;;;;;5070605;28;20447;-68
2022/09/26 02:34:10;;;;;;;4.22;3.70;;;11.00;88.20;;;;;;5067703;28;20935;-68
2022/09/26 02:36:37;;;;;;;5.00;3.65;;;11.00;88.30;;;;;;5079953;28;20460;-67
2022/09/26 02:39:04;;;;;;;4.32;3.85;;;11.00;88.20;;;;;;5072283;28;20432;-69
2022/09/26 02:41:42;;;;;;;4.07;3.65;;;11.00;88.00;;;;;;5072491;28;20423;-68
2022/09/26 02:44:30;;;;;;;4.43;4.00;;;11.00;87.40;;;;;;5069324;28;20431;-69
2022/09/26 02:47:15;;;;;;;4.20;3.80;;;11.00;87.50;;;;;;5074103;28;20439;-68
2022/09/26 02:50:00;;;;;;;3.83;3.53;;;11.10;87.70;;;;;;5073165;28;20814;-68
2022/09/26 02:52:36;;;;;;;4.50;3.80;;;11.10;87.70;;;;;;5078228;28;20435;-69
2022/09/26 02:55:12;;;;;;;4.00;3.60;;;11.10;87.50;;;;;;5073982;28;20415;-69
2022/09/26 02:57:46;;;;;;;3.92;3.60;;;11.10;87.20;;;;;;5070804;28;20454;-68
2022/09/26 03:00:17;;;;;;;4.20;3.78;;;11.10;87.60;;;;;;5069003;28;20431;-68
2022/09/26 03:02:50;;;;;;;4.07;3.60;;;11.10;87.40;;;;;;5069173;28;20917;-68
2022/09/26 03:05:21;;;;;;;4.20;3.60;;;11.20;87.20;;;;;;5070169;28;20498;-69
2022/09/26 03:07:53;;;;;;;4.43;4.03;;;11.10;87.40;;;;;;5074955;28;20801;-68
2022/09/26 03:10:20;;;;;;;4.10;3.70;;;11.20;87.50;;;;;;5071426;28;20425;-69
2022/09/26 03:12:49;;;;;;;4.30;3.90;;;11.10;87.40;;;;;;5071777;28;20427;-69
2022/09/26 03:15:17;;;;;;;4.70;4.20;;;11.10;87.50;;;;;;5074487;28;20507;-69
2022/09/26 03:17:47;;;;;;;4.50;4.05;;;11.10;87.90;;;;;;5081221;28;20437;-69
2022/09/26 03:20:16;;;;;;;5.47;4.20;;;11.10;87.50;;;;;;5064807;28;20432;-70
2022/09/26 03:22:45;;;;;;;4.40;4.10;;;11.10;87.40;;;;;;5070407;28;20435;-68
2022/09/26 03:25:17;;;;;;;5.23;4.73;;;11.20;87.40;;;;;;5076620;28;20426;-68
2022/09/26 03:27:45;;;;;;;5.20;4.40;;;11.20;87.40;;;;;;5071177;28;20435;-69
2022/09/26 03:30:13;;;;;;;5.60;5.00;;;11.20;87.30;;;;;;5068863;28;20453;-68
2022/09/26 03:32:40;;;;;;;5.47;4.97;;;11.10;87.10;;;;;;5069038;28;20549;-68
2022/09/26 03:35:07;;;;;;;5.80;5.15;;;11.10;87.50;;;;;;5072698;28;20429;-68
2022/09/26 03:37:36;;;;;;;5.63;5.13;;;11.10;87.80;;;;;;5073219;28;20433;-69
2022/09/26 03:40:05;;;;;;;6.03;5.53;;;11.00;88.30;;;;;;5069775;28;20444;-68
2022/09/26 03:42:32;;;;;;;6.60;6.00;;;11.00;88.20;;;;;;5075378;28;20427;-69
2022/09/26 03:44:59;;;;;;;6.60;6.00;;;11.00;88.40;;;;;;5070653;28;20423;-68
2022/09/26 03:47:26;;;;;;;7.22;6.43;;;11.00;88.90;;;;;;5069255;28;20458;-68
2022/09/26 03:49:53;;;;;;;7.25;6.65;;;11.00;88.60;;;;;;5085742;28;20421;-68
2022/09/26 03:52:20;;;;;;;7.50;6.90;;;11.00;88.70;;;;;;5071603;28;20429;-69
2022/09/26 03:54:47;;;;;;;7.53;6.88;;;11.00;89.20;;;;;;5076754;28;20478;-68
2022/09/26 03:57:16;;;;;;;7.03;6.43;;;11.00;88.80;;;;;;5067825;28;20440;-68
2022/09/26 03:59:43;;;;;;;7.90;7.10;;;11.00;88.20;;;;;;5074533;28;20884;-69
2022/09/26 04:02:11;;;;;;;8.73;7.93;;;11.00;88.20;;;;;;5073569;28;20458;-68
2022/09/26 04:04:38;;;;;;;8.45;7.72;;;11.00;88.20;;;;;;5069772;28;20428;-68
2022/09/26 04:07:04;;;;;;;8.00;7.30;;;11.00;88.50;;;;;;5073144;28;20417;-68
2022/09/26 04:09:31;;;;;;;8.40;7.60;;;11.00;88.40;;;;;;5061849;28;20427;-68
2022/09/26 04:11:58;;;;;;;8.30;7.60;;;11.00;88.20;;;;;;5069055;28;20420;-69
2022/09/26 04:14:26;;;;;;;8.70;7.90;;;11.00;88.20;;;;;;5056744;28;20916;-68
2022/09/26 04:16:53;;;;;;;8.88;7.97;;;11.00;88.20;;;;;;5069098;28;20427;-68
2022/09/26 04:19:20;;;;;;;8.60;7.90;;;11.00;88.00;;;;;;5068615;28;20416;-68
2022/09/26 04:21:47;;;;;;;9.05;8.25;;;11.10;87.90;;;;;;5083257;22;20422;-72
2022/09/26 04:24:15;;;;;;;8.95;8.25;;;11.00;88.30;;;;;;5042960;28;20429;-73
2022/09/26 04:26:44;;;;;;;9.15;8.25;;;11.00;88.80;;;;;;5040220;28;20424;-71
2022/09/26 04:29:12;;;;;;;8.93;8.05;;;11.00;89.20;;;;;;5048447;28;20805;-71
2022/09/26 04:31:40;;;;;;;8.55;7.63;;;10.90;89.20;;;;;;5048904;28;20504;-72
2022/09/26 04:34:09;;;;;;;8.80;8.00;;;10.90;89.30;;;;;;5034033;28;20420;-71
2022/09/26 04:36:36;;;;;;;9.75;8.95;;;10.90;89.60;;;;;;5028856;28;20427;-71
2022/09/26 04:39:04;;;;;;;8.63;7.82;;;10.90;90.00;;;;;;5027358;28;20434;-72
2022/09/26 04:41:31;;;;;;;9.00;8.20;;;10.90;89.80;;;;;;5027332;28;20431;-72
2022/09/26 04:43:59;;;;;;;8.90;8.10;;;10.90;89.60;;;;;;5027366;28;20435;-72
2022/09/26 04:46:27;;;;;;;8.77;8.07;;;10.90;89.50;;;;;;5027040;28;20431;-72
2022/09/26 04:48:57;;;;;;;8.55;7.75;;;10.90;89.50;;;;;;5024481;28;21058;-72
2022/09/26 04:51:27;;;;;;;8.40;7.70;;;10.80;89.50;;;;;;5038560;28;20417;-72
2022/09/26 04:53:53;;;;;;;10.20;9.20;;;10.90;89.70;;;;;;5027323;28;20466;-73
2022/09/26 04:56:22;;;;;;;8.55;7.85;;;10.90;89.80;;;;;;5029397;28;20430;-73
2022/09/26 04:58:49;;;;;;;9.07;8.30;;;10.80;90.00;;;;;;5033902;28;20544;-72
2022/09/26 05:01:17;;;;;;;9.20;8.40;;;10.80;90.10;;;;;;5025180;28;20438;-72
2022/09/26 05:03:44;;;;;;;8.70;7.90;;;10.80;90.10;;;;;;5023942;28;20447;-71
2022/09/26 05:06:13;;;;;;;9.17;8.30;;;10.80;89.90;;;;;;5025498;28;20775;-71
2022/09/26 05:08:41;;;;;;;8.77;8.07;;;10.80;89.80;;;;;;5022323;28;20530;-71
2022/09/26 05:11:09;;;;;;;9.48;8.57;;;10.80;89.80;;;;;;5032080;28;20431;-72
2022/09/26 05:13:37;;;;;;;9.80;8.90;;;10.80;90.50;;;;;;5025402;28;20435;-71
2022/09/26 05:16:07;;;;;;;9.82;8.82;;;10.80;89.80;;;;;;5026694;28;20427;-71
2022/09/26 05:18:34;;;;;;;9.40;8.60;;;10.80;89.50;;;;;;5025964;28;20880;-72
2022/09/26 05:21:02;;;;;;;9.93;9.13;;;10.80;89.20;;;;;;5027182;28;20430;-71
2022/09/26 05:26:19;;;;;;;10.90;9.90;;;10.80;90.00;;;;;;5017997;28;20429;-73
2022/09/26 05:28:47;;;;;;;10.80;9.80;;;10.80;90.00;;;;;;5032966;28;20461;-72
2022/09/26 05:31:14;;;;;;;10.90;9.90;;;10.70;90.00;;;;;;5030841;28;20454;-71
2022/09/26 05:33:41;;;;;;;10.60;9.70;;;10.80;90.00;;;;;;5028410;28;20434;-71
2022/09/26 05:36:08;;;;;;;10.85;9.95;;;10.70;90.00;;;;;;5025952;28;20455;-72
2022/09/26 05:38:36;;;;;;;10.70;9.70;;;10.70;90.30;;;;;;5028951;28;20435;-72
2022/09/26 05:41:02;;;;;;;10.48;9.55;;;10.70;90.10;;;;;;5025678;28;20430;-71
2022/09/26 05:43:32;;;;;;;10.70;9.80;;;10.70;90.20;;;;;;5027579;28;20434;-70
2022/09/26 05:45:59;;;;;;;11.23;10.23;;;10.70;90.30;;;;;;5026787;28;20427;-71
2022/09/26 05:48:28;;;;;;;10.82;9.93;;;10.70;90.10;;;;;;5026235;28;20442;-70
2022/09/26 05:50:54;;;;;;;10.35;9.45;;;10.80;90.00;;;;;;5027933;28;20441;-71
2022/09/26 05:53:23;;;;;;;10.63;9.73;;;10.80;89.60;;;;;;5029221;28;20433;-73
2022/09/26 05:55:52;;;;;;;9.80;9.00;;;10.80;89.60;;;;;;5022725;28;20426;-75
2022/09/26 05:58:19;;;;;;;10.05;9.15;;;10.90;89.20;;;;;;5024285;28;20431;-73
2022/09/26 06:00:47;;;;;;;10.40;9.50;;;10.80;89.20;;;;;;5025195;28;20430;-73
2022/09/26 06:03:14;;;;;;;9.68;8.68;;;10.90;88.80;;;;;;5024460;28;20430;-72
2022/09/26 06:05:41;;;;;;;9.20;8.30;;;10.90;89.20;;;;;;5027256;28;20434;-73
2022/09/26 06:08:09;;;;;;;8.73;7.93;;;11.00;88.10;;;;;;5027624;28;20634;-73
2022/09/26 06:10:37;;;;;;;8.93;8.13;;;11.00;87.40;;;;;;5033012;28;20439;-72
2022/09/26 06:13:07;;;;;;;10.13;9.23;;;11.00;87.90;;;;;;5028560;28;20419;-72
2022/09/26 06:15:34;;;;;;;9.20;8.40;;;11.00;88.40;;;;;;5036587;28;20427;-73
2022/09/26 06:18:03;;;;;;;9.60;8.80;;;11.00;87.80;;;;;;5027530;28;20426;-72
2022/09/26 06:20:31;;;;;;;9.53;8.73;;;11.00;88.50;;;;;;5028194;28;20591;-73
2022/09/26 06:22:58;;;;;;;8.68;7.95;;;11.00;88.00;;;;;;5044423;28;20438;-73
2022/09/26 06:25:25;;;;;;;8.97;8.07;;;11.10;87.70;;;;;;5020711;28;20430;-72
2022/09/26 06:27:55;;;;;;;8.57;7.70;;;11.10;86.70;;;;;;5029534;28;20449;-72
2022/09/26 06:30:24;;;;;;;9.60;7.93;;;11.20;86.50;;;;;;5029637;28;20452;-72
2022/09/26 06:32:52;;;;;;;8.02;7.13;;;11.30;86.50;;;;;;5028736;28;20436;-72
2022/09/26 06:35:19;;;;;;;7.38;6.68;;;11.30;85.40;;;;;;5032021;28;20427;-72
2022/09/26 06:37:46;;;;;;;10.52;6.50;;;11.30;85.90;;;;;;5036025;28;20439;-72
2022/09/26 06:40:13;;;;;;;6.10;5.50;;;11.40;84.60;;;;;;5030966;28;20442;-73
2022/09/26 06:42:40;;;;;;;5.72;5.05;;;11.60;82.90;;;;;;5035459;28;20435;-72
2022/09/26 06:45:08;;;;;;;6.47;5.03;;;11.70;82.20;;;;;;5035983;28;20431;-73
2022/09/26 06:47:36;;;;;;;5.45;4.95;;;11.80;81.40;;;;;;5034321;28;21062;-72
2022/09/26 06:50:04;;;;;;;4.80;4.40;;;12.00;80.60;;;;;;5033082;28;20435;-74
2022/09/26 06:52:33;;;;;;;4.40;4.10;;;12.00;80.00;;;;;;5031985;28;20715;-71
2022/09/26 06:55:01;;;;;;;5.25;4.75;;;12.00;79.60;;;;;;5028534;28;20434;-72
2022/09/26 06:57:28;;;;;;;4.15;3.85;;;12.10;79.40;;;;;;5028395;28;20434;-71
2022/09/26 06:59:56;;;;;;;3.92;3.55;;;12.10;79.10;;;;;;5030029;28;20457;-72
2022/09/26 07:02:25;;;;;;;4.35;3.75;;;12.20;78.80;;;;;;5030186;28;20418;-72
2022/09/26 07:04:53;;;;;;;3.70;3.40;;;12.20;78.40;;;;;;5028404;28;20471;-72
2022/09/26 07:07:21;;;;;;;5.40;3.50;;;12.20;78.20;;;;;;5028523;28;20447;-72
2022/09/26 07:09:48;;;;;;;3.40;3.10;;;12.30;78.00;;;;;;5031683;28;20622;-72
2022/09/26 07:12:14;;;;;;;3.70;3.30;;;12.30;78.30;;;;;;5028153;28;20541;-72
2022/09/26 07:14:41;;;;;;;5.00;3.90;;;12.30;78.20;;;;;;5027256;28;20434;-73
2022/09/26 07:17:09;;;;;;;5.13;3.05;;;12.30;77.60;;;;;;5028360;28;20904;-71
2022/09/26 07:19:36;;;;;;;3.63;2.90;;;12.30;77.80;;;;;;5029220;28;20422;-73
2022/09/26 07:22:06;;;;;;;4.13;3.22;;;12.40;77.40;;;;;;5029183;28;20439;-73
2022/09/26 07:24:33;;;;;;;3.58;3.28;;;12.40;76.20;;;;;;5036975;28;20467;-73
2022/09/26 07:27:01;;;;;;;3.40;3.10;;;12.40;77.10;;;;;;5032830;28;20920;-72
2022/09/26 07:29:28;;;;;;;3.65;2.90;;;12.40;76.80;;;;;;5026918;28;20430;-74
2022/09/26 07:31:55;;;;;;;3.20;2.70;;;12.40;76.60;;;;;;5026335;28;20933;-74
2022/09/26 07:34:23;;;;;;;3.70;3.10;;;12.40;77.00;;;;;;5028877;28;20798;-72
2022/09/26 07:36:50;;;;;;;4.30;3.00;;;12.40;77.40;;;;;;5029926;28;20481;-72
2022/09/26 07:39:18;;;;;;;4.63;2.60;;;12.40;77.30;;;;;;5029816;28;20419;-71
2022/09/26 07:41:46;;;;;;;2.97;2.70;;;12.50;76.80;;;;;;5028459;28;20473;-71
2022/09/26 07:44:13;;;;;;;3.80;2.67;;;12.50;76.70;;;;;;5021412;28;20509;-72
2022/09/26 07:52:08;;;;;;;3.47;2.50;;;12.60;76.50;;;;;;5028698;28;20438;-71
2022/09/26 07:54:36;;;;;;;3.33;2.80;;;12.60;76.60;;;;;;5027812;28;20434;-72
2022/09/26 07:57:03;;;;;;;3.78;2.65;;;12.60;77.30;;;;;;5026776;28;20426;-71
2022/09/26 07:59:34;;;;;;;4.97;2.65;;;12.60;76.40;;;;;;5029332;28;20454;-71
2022/09/26 08:02:01;;;;;;;3.03;2.08;;;12.60;76.90;;;;;;5029837;28;20807;-71
2022/09/26 08:04:28;;;;;;;3.07;2.67;;;12.60;77.00;;;;;;5040630;28;20472;-71
2022/09/26 08:06:56;;;;;;;3.53;2.30;;;12.60;78.30;;;;;;5044604;28;20441;-71
2022/09/26 08:09:23;;;;;;;3.08;2.20;;;12.60;76.30;;;;;;5026201;28;20434;-72
2022/09/26 08:11:51;;;;;;;3.20;2.30;;;12.70;75.90;;;;;;5032760;28;20428;-72
2022/09/26 08:14:18;;;;;;;4.15;2.78;;;12.60;78.30;;;;;;5029009;28;20842;-72
2022/09/26 08:16:45;;;;;;;4.35;2.47;;;12.60;77.50;;;;;;5029040;28;20918;-72
2022/09/26 08:19:16;;;;;;;4.35;2.70;;;12.60;77.50;;;;;;5041057;28;20432;-72
2022/09/26 08:21:43;;;;;;;3.50;2.50;;;12.60;78.30;;;;;;5040874;28;21075;-72
2022/09/26 08:24:09;;;;;;;3.67;2.30;;;12.60;78.30;;;;;;5030996;28;20502;-71
2022/09/26 08:26:39;;;;;;;2.65;2.00;;;12.60;79.20;;;;;;5024924;28;20799;-72
2022/09/26 08:29:10;;;;;;;2.85;1.80;;;12.70;78.70;;;;;;5026754;28;20439;-72
2022/09/26 08:31:37;;;;;;;3.13;1.80;;;12.70;78.60;;;;;;5033623;28;20553;-71
2022/09/26 08:34:04;;;;;;;3.22;1.70;;;12.70;77.80;;;;;;5028439;28;20419;-71
2022/09/26 08:36:31;;;;;;;2.88;1.98;;;12.60;77.90;;;;;;5029399;28;20426;-71
2022/09/26 08:38:58;;;;;;;2.67;2.10;;;12.60;77.00;;;;;;5028430;28;20435;-71
2022/09/26 08:41:39;;;;;;;2.50;1.90;;;12.50;78.90;;;;;;5030612;28;20423;-72
2022/09/26 08:44:21;;;;;;;2.85;1.80;;;12.50;81.10;;;;;;5027566;28;20454;-72
2022/09/26 08:46:55;;;;;;;2.55;1.92;;;12.50;80.30;;;;;;5032502;28;20431;-71
2022/09/26 08:49:41;;;;;;;4.40;1.90;;;12.50;80.00;;;;;;5028530;28;20529;-71
2022/09/26 08:52:25;;;;;;;1.88;1.70;;;12.40;82.70;;;;;;5032646;28;20466;-74
2022/09/26 08:54:54;;;;;;;4.18;1.92;;;12.40;79.60;;;;;;5030235;28;20430;-74
2022/09/26 08:57:33;;;;;;;2.50;1.60;;;12.40;79.80;;;;;;5028682;28;20415;-74
2022/09/26 09:00:08;;;;;;;2.63;1.70;;;12.30;80.00;;;;;;5026041;28;20415;-74
2022/09/26 09:02:43;;;;;;;2.47;2.07;;;12.30;80.80;;;;;;5025050;28;20450;-74
2022/09/26 09:05:16;;;;;;;3.92;1.70;;;12.20;82.50;;;;;;5041998;28;20413;-74
2022/09/26 09:07:47;;;;;;;2.80;2.10;;;12.20;83.40;;;;;;5026736;28;20431;-74
2022/09/26 09:10:17;;;;;;;2.20;1.80;;;12.20;81.90;;;;;;5025102;28;20450;-74
2022/09/26 09:12:54;;;;;;;3.83;1.90;;;12.10;83.50;;;;;;5026477;28;20442;-74
2022/09/26 09:15:34;;;;;;;3.50;1.73;;;12.10;83.90;;;;;;5020588;28;20427;-74
2022/09/26 09:18:13;;;;;;;2.40;1.92;;;12.10;84.00;;;;;;5026084;28;20419;-73
2022/09/26 09:20:52;;;;;;;3.83;1.60;;;12.00;84.70;;;;;;5031276;28;20508;-73
2022/09/26 09:23:53;;;;;;;2.28;1.88;;;12.00;84.20;;;;;;5027093;28;20461;-73
2022/09/26 09:26:28;;;;;;;3.40;1.92;;;11.90;85.40;;;;;;5038715;28;20441;-73
2022/09/26 09:29:13;;;;;;;3.07;1.97;;;11.80;87.50;;;;;;5028064;28;20423;-75
2022/09/26 09:31:43;;;;;;;3.50;1.90;;;11.70;89.70;;;;;;5015512;28;20791;-75
2022/09/26 09:34:17;;;;;;;2.22;2.03;;;11.70;88.60;;;;;;5026606;28;20429;-74
2022/09/26 09:36:47;;;;;;;2.50;2.30;;;11.60;88.70;;;;;;5025337;28;20783;-74
2022/09/26 09:39:23;;;;;;;3.83;2.30;;;11.60;90.60;;;;;;5030182;28;20436;-74
2022/09/26 09:41:54;;;;;;;2.30;2.10;;;11.60;90.80;;;;;;5029531;28;20438;-74
2022/09/26 09:44:36;;;;;;;4.13;2.60;;;11.60;90.00;;;;;;5030318;28;20442;-74
2022/09/26 09:47:13;;;;;;;2.70;2.50;;;11.60;89.50;;;;;;5027062;28;20492;-74
2022/09/26 09:49:40;;;;;;;3.13;2.67;;;11.70;90.40;;;;;;5033270;28;20534;-74
2022/09/26 09:52:19;;;;;;;3.20;2.45;;;11.70;90.90;;;;;;5033334;28;20446;-74
2022/09/26 09:54:58;;;;;;;4.00;2.55;;;11.70;90.00;;;;;;5034639;28;20435;-73
2022/09/26 09:57:40;;;;;;;2.90;2.60;;;11.80;90.10;;;;;;5031765;28;20433;-73
2022/09/26 10:00:14;;;;;;;5.22;3.08;;;11.80;89.00;;;;;;5037677;28;21553;-73
2022/09/26 10:02:50;;;;;;;3.55;3.22;;;11.80;90.10;;;;;;5028969;28;20445;-73
2022/09/26 10:05:23;;;;;;;2.90;2.60;;;11.80;90.50;;;;;;5026225;28;20438;-73
2022/09/26 10:07:52;;;;;;;5.18;3.30;;;11.80;91.10;;;;;;5026848;28;20467;-73
2022/09/26 10:10:24;;;;;;;4.50;3.67;;;11.80;91.60;;;;;;5029121;28;20427;-73
2022/09/26 10:12:53;;;;;;;3.40;2.42;;;11.80;91.20;;;;;;5040494;28;20417;-73
2022/09/26 10:15:25;;;;;;;4.40;2.80;;;11.80;91.10;;;;;;5047406;28;20423;-73
2022/09/26 10:18:19;;;;;;;3.88;2.60;;;11.80;91.30;;;;;;5034893;28;20509;-74
2022/09/26 10:20:52;;;;;;;3.58;2.70;;;11.80;90.90;;;;;;5024104;28;20437;-73
2022/09/26 10:23:27;;;;;;;5.50;2.80;;;11.90;90.40;;;;;;5063200;22;20449;-69
2022/09/26 10:25:59;;;;;;;3.13;2.90;;;12.00;91.00;;;;;;5050246;28;20440;-69
2022/09/26 10:28:34;;;;;;;4.50;3.30;;;12.00;91.20;;;;;;5046564;28;20417;-69
2022/09/26 10:31:07;;;;;;;5.32;2.97;;;12.00;91.60;;;;;;5046771;28;20425;-69
2022/09/26 10:33:38;;;;;;;3.83;3.13;;;12.10;91.70;;;;;;5045453;28;20466;-69
2022/09/26 10:36:19;;;;;;;4.00;3.13;;;12.10;91.90;;;;;;5045918;28;20437;-68
2022/09/26 10:41:43;;;;;;;3.25;2.95;;;12.10;91.10;;;;;;5040411;28;20803;-69
2022/09/26 10:44:22;;;;;;;4.85;3.30;;;12.10;91.30;;;;;;5045665;28;20797;-69
2022/09/26 10:46:52;;;;;;;3.60;3.00;;;12.10;92.20;;;;;;5046473;28;20433;-70
2022/09/26 10:49:26;;;;;;;3.90;2.90;;;12.00;92.20;;;;;;5046007;28;20428;-69
2022/09/26 10:52:02;;;;;;;3.20;2.85;;;12.10;91.70;;;;;;5045493;28;20438;-68
2022/09/26 10:54:40;;;;;;;3.95;3.08;;;12.10;91.00;;;;;;5046246;28;20441;-69
2022/09/26 10:57:09;;;;;;;3.60;3.30;;;12.10;91.40;;;;;;5044533;28;20433;-68
2022/09/26 10:59:40;;;;;;;3.77;2.90;;;12.10;91.70;;;;;;5044246;28;20437;-68
2022/09/26 11:02:18;;;;;;;4.40;3.30;;;12.10;90.70;;;;;;5044664;28;20954;-69
2022/09/26 11:07:34;;;;;;;3.30;3.00;;;12.10;91.30;;;;;;5046633;28;20444;-67
2022/09/26 11:10:05;;;;;;;3.30;3.00;;;12.20;91.30;;;;;;5048916;28;20437;-69
2022/09/26 11:12:38;;;;;;;3.60;2.70;;;12.30;91.40;;;;;;5048055;28;20429;-68
2022/09/26 11:15:09;;;;;;;3.40;2.80;;;12.40;88.80;;;;;;5049876;28;20424;-69
2022/09/26 11:17:46;;;;;;;3.25;2.95;;;12.50;90.20;;;;;;5048225;28;20449;-69
2022/09/26 11:20:28;;;;;;;3.22;2.47;;;12.50;90.40;;;;;;5037537;28;20449;-69
2022/09/26 11:23:05;;;;;;;3.08;2.40;;;12.50;90.00;;;;;;5049538;28;20428;-69
2022/09/26 11:25:39;;;;;;;2.45;2.25;;;12.60;87.20;;;;;;5042199;28;20425;-69
2022/09/26 11:28:11;;;;;;;2.53;2.30;;;12.60;88.70;;;;;;5049742;28;20436;-68
2022/09/26 11:30:47;;;;;;;2.20;2.00;;;12.60;89.20;;;;;;5048052;28;20432;-70
2022/09/26 11:33:17;;;;;;;2.58;1.98;;;12.70;88.20;;;;;;5040356;28;20420;-69
2022/09/26 11:35:58;;;;;;;2.70;1.95;;;12.70;87.40;;;;;;5049308;28;20417;-70
2022/09/26 11:38:38;;;;;;;2.95;2.00;;;12.80;86.60;;;;;;5046103;28;20428;-69
2022/09/26 11:41:35;;;;;;;3.13;1.92;;;13.00;83.90;;;;;;5050007;28;20906;-69
2022/09/26 11:44:25;;;;;;;2.13;1.67;;;13.00;82.70;;;;;;5049488;28;20533;-69
2022/09/26 11:47:06;;;;;;;2.50;1.63;;;13.10;83.10;;;;;;5052012;28;20429;-69
2022/09/26 11:49:57;;;;;;;2.10;1.83;;;13.20;82.30;;;;;;5044707;28;20430;-69
2022/09/26 11:52:40;;;;;;;3.03;1.70;;;13.30;82.70;;;;;;5039047;28;20451;-70
2022/09/26 11:55:18;;;;;;;2.13;1.30;;;13.50;81.50;;;;;;5048542;28;20885;-69
2022/09/26 11:57:52;;;;;;;2.45;1.65;;;13.50;79.60;;;;;;5049301;28;21073;-69
2022/09/26 12:00:26;;;;;;;1.50;1.40;;;13.60;81.00;;;;;;5047264;28;20499;-69
2022/09/26 12:03:22;;;;;;;2.33;1.48;;;13.60;78.90;;;;;;5046345;28;20425;-68
2022/09/26 12:05:55;;;;;;;2.20;1.50;;;13.70;78.60;;;;;;5030172;28;20424;-69
2022/09/26 12:08:41;;;;;;;2.40;1.50;;;13.60;79.40;;;;;;5045932;28;20927;-69
2022/09/26 12:11:19;;;;;;;2.45;1.42;;;13.70;76.80;;;;;;5048653;28;20424;-69
2022/09/26 12:13:52;;;;;;;1.83;1.20;;;13.70;76.60;;;;;;5047911;28;20433;-69
2022/09/26 12:16:25;;;;;;;3.63;1.50;;;13.80;76.20;;;;;;5040754;28;20429;-67
2022/09/26 12:19:01;;;;;;;3.10;1.70;;;13.80;75.70;;;;;;5044879;28;20518;-67
2022/09/26 12:21:40;;;;;;;1.40;1.00;;;13.80;75.60;;;;;;5047832;28;20437;-69
2022/09/26 12:24:22;;;;;;;3.17;1.60;;;13.80;75.00;;;;;;5046733;28;20533;-68
2022/09/26 12:26:58;;;;;;;2.60;1.40;;;13.70;75.80;;;;;;5047814;28;20461;-70
2022/09/26 12:29:39;;;;;;;4.75;4.13;;;13.70;74.20;;;;;;5045058;28;20433;-62
2022/09/26 12:32:29;;;;;;;5.30;4.00;;;13.70;74.40;;;;;;5045664;28;20507;-64
2022/09/26 12:35:07;;;;;;;2.53;1.80;;;13.70;73.80;;;;;;5047098;28;20515;-62
2022/09/26 12:38:12;;;;;;;3.08;1.75;;;13.70;73.30;;;;;;5047133;28;20796;-61
2022/09/26 12:40:49;;;;;;;2.50;1.50;;;13.80;74.30;;;;;;5042856;28;20434;-61
2022/09/26 12:43:43;;;;;;;1.50;1.23;;;13.70;73.10;;;;;;5040747;28;20444;-61
2022/09/26 12:46:50;;;;;;;1.80;1.40;;;13.70;73.70;;;;;;5040961;28;20471;-62
2022/09/26 12:49:32;;;;;;;3.15;1.80;;;13.70;74.30;;;;;;5046282;28;20433;-62
2022/09/26 12:52:07;;;;;;;2.80;1.70;;;13.70;73.30;;;;;;5047396;28;20472;-61
2022/09/26 12:54:48;;;;;;;2.13;1.40;;;13.60;73.20;;;;;;5043351;28;20420;-62
2022/09/26 12:57:29;;;;;;;2.38;1.55;;;13.50;74.70;;;;;;5046815;28;20425;-63
2022/09/26 13:00:12;;;;;;;2.78;1.40;;;13.40;75.60;;;;;;5046244;28;20437;-70
2022/09/26 13:03:15;;;;;;;2.70;1.40;;;13.40;75.60;;;;;;5041605;28;20443;-67
2022/09/26 13:06:02;;;;;;;2.60;1.20;;;13.40;74.60;;;;;;5011302;28;20647;-68
2022/09/26 13:08:36;;;;;;;2.03;1.40;;;13.50;74.10;;;;;;5044633;28;20913;-68
2022/09/26 13:11:15;;;;;;;2.92;1.60;;;13.40;76.00;;;;;;5047794;28;20494;-68
2022/09/26 13:14:11;;;;;;;4.28;1.90;;;13.30;78.10;;;;;;5040467;28;21145;-68
2022/09/26 13:16:48;;;;;;;4.70;1.92;;;13.20;79.50;;;;;;5042806;28;20516;-68
2022/09/26 13:19:22;;;;;;;4.32;2.08;;;13.00;84.40;;;;;;5041525;28;20421;-68
2022/09/26 13:21:55;;;;;;;3.50;2.30;;;12.80;85.60;;;;;;5047813;28;20428;-69
2022/09/26 13:24:24;;;;;;;4.20;2.47;;;12.50;87.40;;;;;;5045685;28;20456;-69
2022/09/26 13:26:56;;;;;;;5.25;2.40;;;12.40;89.70;;;;;;5046234;28;20433;-70